sensor_id;sensor_type;location;lat;lon;timestamp;P1;durP1;ratioP1;P2;durP2;ratioP2
65717;SDS011;52445;52.466;-1.016;2023-09-07T00:02:10;6.80;;;4.25;;
65717;SDS011;52445;52.466;-1.016;2023-09-07T00:04:37;7.88;;;4.47;;
65717;SDS011;52445;52.466;-1.016;2023-09-07T00:07:04;6.97;;;4.38;;
65717;SDS011;52445;52.466;-1.016;2023-09-07T00:09:31;9.70;;;4.90;;
65717;SDS011;52445;52.466;-1.016;2023-09-07T00:11:58;6.80;;;4.63;;
65717;SDS011;52445;52.466;-1.016;2023-09-07T00:14:25;5.78;;;3.80;;
65717;SDS011;52445;52.466;-1.016;2023-09-07T00:16:51;7.55;;;5.13;;
65717;SDS011;52445;52.466;-1.016;2023-09-07T00:19:18;8.85;;;4.18;;
65717;SDS011;52445;52.466;-1.016;2023-09-07T00:21:45;6.53;;;4.45;;
65717;SDS011;52445;52.466;-1.016;2023-09-07T00:24:12;7.63;;;4.30;;
65717;SDS011;52445;52.466;-1.016;2023-09-07T00:26:38;5.88;;;4.38;;
65717;SDS011;52445;52.466;-1.016;2023-09-07T00:29:05;7.65;;;4.43;;
65717;SDS011;52445;52.466;-1.016;2023-09-07T00:31:32;6.15;;;4.20;;
65717;SDS011;52445;52.466;-1.016;2023-09-07T00:33:59;8.55;;;4.32;;
65717;SDS011;52445;52.466;-1.016;2023-09-07T00:36:26;5.97;;;4.65;;
65717;SDS011;52445;52.466;-1.016;2023-09-07T00:38:53;5.85;;;4.22;;
65717;SDS011;52445;52.466;-1.016;2023-09-07T00:41:19;8.57;;;5.50;;
65717;SDS011;52445;52.466;-1.016;2023-09-07T00:43:46;9.35;;;3.78;;
65717;SDS011;52445;52.466;-1.016;2023-09-07T00:46:13;5.80;;;4.15;;
65717;SDS011;52445;52.466;-1.016;2023-09-07T00:48:39;6.38;;;4.22;;
65717;SDS011;52445;52.466;-1.016;2023-09-07T00:51:07;8.63;;;5.72;;
65717;SDS011;52445;52.466;-1.016;2023-09-07T00:53:33;6.70;;;4.40;;
65717;SDS011;52445;52.466;-1.016;2023-09-07T00:56:00;8.35;;;4.28;;
65717;SDS011;52445;52.466;-1.016;2023-09-07T00:58:28;7.30;;;4.38;;
65717;SDS011;52445;52.466;-1.016;2023-09-07T01:00:56;7.72;;;4.18;;
65717;SDS011;52445;52.466;-1.016;2023-09-07T01:03:23;9.30;;;4.90;;
65717;SDS011;52445;52.466;-1.016;2023-09-07T01:05:51;7.00;;;3.97;;
65717;SDS011;52445;52.466;-1.016;2023-09-07T01:08:23;8.80;;;5.28;;
65717;SDS011;52445;52.466;-1.016;2023-09-07T01:10:55;7.28;;;4.95;;
65717;SDS011;52445;52.466;-1.016;2023-09-07T01:13:22;7.95;;;4.85;;
65717;SDS011;52445;52.466;-1.016;2023-09-07T01:15:49;9.27;;;4.85;;
65717;SDS011;52445;52.466;-1.016;2023-09-07T01:18:16;7.63;;;4.55;;
65717;SDS011;52445;52.466;-1.016;2023-09-07T01:21:05;9.07;;;4.70;;
65717;SDS011;52445;52.466;-1.016;2023-09-07T01:23:35;9.65;;;6.63;;
65717;SDS011;52445;52.466;-1.016;2023-09-07T01:26:03;7.18;;;4.85;;
65717;SDS011;52445;52.466;-1.016;2023-09-07T01:28:30;6.88;;;4.80;;
65717;SDS011;52445;52.466;-1.016;2023-09-07T01:30:57;8.85;;;4.88;;
65717;SDS011;52445;52.466;-1.016;2023-09-07T01:33:24;9.48;;;5.22;;
65717;SDS011;52445;52.466;-1.016;2023-09-07T01:35:51;8.65;;;5.10;;
65717;SDS011;52445;52.466;-1.016;2023-09-07T01:38:18;7.57;;;5.05;;
65717;SDS011;52445;52.466;-1.016;2023-09-07T01:40:45;7.65;;;4.72;;
65717;SDS011;52445;52.466;-1.016;2023-09-07T01:43:12;8.90;;;5.35;;
65717;SDS011;52445;52.466;-1.016;2023-09-07T01:45:39;7.78;;;4.97;;
65717;SDS011;52445;52.466;-1.016;2023-09-07T01:48:07;9.10;;;6.28;;
65717;SDS011;52445;52.466;-1.016;2023-09-07T01:50:37;8.48;;;6.10;;
65717;SDS011;52445;52.466;-1.016;2023-09-07T01:53:04;9.20;;;5.03;;
65717;SDS011;52445;52.466;-1.016;2023-09-07T01:55:32;9.52;;;5.30;;
65717;SDS011;52445;52.466;-1.016;2023-09-07T01:57:59;11.52;;;5.35;;
65717;SDS011;52445;52.466;-1.016;2023-09-07T02:00:26;7.18;;;4.78;;
65717;SDS011;52445;52.466;-1.016;2023-09-07T02:02:56;8.35;;;5.35;;
65717;SDS011;52445;52.466;-1.016;2023-09-07T02:05:23;10.23;;;5.95;;
65717;SDS011;52445;52.466;-1.016;2023-09-07T02:07:49;8.05;;;5.78;;
65717;SDS011;52445;52.466;-1.016;2023-09-07T02:10:16;9.40;;;5.28;;
65717;SDS011;52445;52.466;-1.016;2023-09-07T02:12:45;10.90;;;5.57;;
65717;SDS011;52445;52.466;-1.016;2023-09-07T02:15:13;8.85;;;5.90;;
65717;SDS011;52445;52.466;-1.016;2023-09-07T02:17:39;8.32;;;5.18;;
65717;SDS011;52445;52.466;-1.016;2023-09-07T02:20:06;9.10;;;5.75;;
65717;SDS011;52445;52.466;-1.016;2023-09-07T02:22:37;7.97;;;4.93;;
65717;SDS011;52445;52.466;-1.016;2023-09-07T02:25:05;10.02;;;6.05;;
65717;SDS011;52445;52.466;-1.016;2023-09-07T02:27:32;8.75;;;6.03;;
65717;SDS011;52445;52.466;-1.016;2023-09-07T02:29:59;8.48;;;5.60;;
65717;SDS011;52445;52.466;-1.016;2023-09-07T02:32:26;9.63;;;5.93;;
65717;SDS011;52445;52.466;-1.016;2023-09-07T02:34:53;11.77;;;6.72;;
65717;SDS011;52445;52.466;-1.016;2023-09-07T02:37:19;10.05;;;5.70;;
65717;SDS011;52445;52.466;-1.016;2023-09-07T02:39:46;11.15;;;6.28;;
65717;SDS011;52445;52.466;-1.016;2023-09-07T02:42:13;10.13;;;5.35;;
65717;SDS011;52445;52.466;-1.016;2023-09-07T02:44:39;9.50;;;5.43;;
65717;SDS011;52445;52.466;-1.016;2023-09-07T02:47:06;11.25;;;6.05;;
65717;SDS011;52445;52.466;-1.016;2023-09-07T02:49:36;9.48;;;6.65;;
65717;SDS011;52445;52.466;-1.016;2023-09-07T02:52:03;12.55;;;6.03;;
65717;SDS011;52445;52.466;-1.016;2023-09-07T02:54:30;9.60;;;6.13;;
65717;SDS011;52445;52.466;-1.016;2023-09-07T02:56:57;10.85;;;6.28;;
65717;SDS011;52445;52.466;-1.016;2023-09-07T02:59:23;9.93;;;6.10;;
65717;SDS011;52445;52.466;-1.016;2023-09-07T03:01:50;8.82;;;5.70;;
65717;SDS011;52445;52.466;-1.016;2023-09-07T03:04:17;11.18;;;6.63;;
65717;SDS011;52445;52.466;-1.016;2023-09-07T03:06:43;11.40;;;8.07;;
65717;SDS011;52445;52.466;-1.016;2023-09-07T03:09:10;10.98;;;6.22;;
65717;SDS011;52445;52.466;-1.016;2023-09-07T03:11:37;10.93;;;7.13;;
65717;SDS011;52445;52.466;-1.016;2023-09-07T03:14:04;11.50;;;7.07;;
65717;SDS011;52445;52.466;-1.016;2023-09-07T03:16:31;11.75;;;6.60;;
65717;SDS011;52445;52.466;-1.016;2023-09-07T03:18:58;11.05;;;7.00;;
65717;SDS011;52445;52.466;-1.016;2023-09-07T03:21:24;11.20;;;7.35;;
65717;SDS011;52445;52.466;-1.016;2023-09-07T03:23:56;12.73;;;7.80;;
65717;SDS011;52445;52.466;-1.016;2023-09-07T03:26:24;10.70;;;7.32;;
65717;SDS011;52445;52.466;-1.016;2023-09-07T03:28:51;14.02;;;7.68;;
65717;SDS011;52445;52.466;-1.016;2023-09-07T03:31:19;13.48;;;7.15;;
65717;SDS011;52445;52.466;-1.016;2023-09-07T03:33:46;15.23;;;8.10;;
65717;SDS011;52445;52.466;-1.016;2023-09-07T03:36:12;14.02;;;7.68;;
65717;SDS011;52445;52.466;-1.016;2023-09-07T03:38:41;13.02;;;7.45;;
65717;SDS011;52445;52.466;-1.016;2023-09-07T03:41:09;13.50;;;7.13;;
65717;SDS011;52445;52.466;-1.016;2023-09-07T03:43:36;12.73;;;7.55;;
65717;SDS011;52445;52.466;-1.016;2023-09-07T03:46:03;13.30;;;9.32;;
65717;SDS011;52445;52.466;-1.016;2023-09-07T03:48:30;13.50;;;7.95;;
65717;SDS011;52445;52.466;-1.016;2023-09-07T03:50:57;13.77;;;9.63;;
65717;SDS011;52445;52.466;-1.016;2023-09-07T03:53:23;12.80;;;7.80;;
65717;SDS011;52445;52.466;-1.016;2023-09-07T03:55:50;14.65;;;8.02;;
65717;SDS011;52445;52.466;-1.016;2023-09-07T03:58:16;13.88;;;9.02;;
65717;SDS011;52445;52.466;-1.016;2023-09-07T04:00:43;13.32;;;8.48;;
65717;SDS011;52445;52.466;-1.016;2023-09-07T04:03:10;12.48;;;7.85;;
65717;SDS011;52445;52.466;-1.016;2023-09-07T04:05:37;15.40;;;7.40;;
65717;SDS011;52445;52.466;-1.016;2023-09-07T04:08:05;15.88;;;8.23;;
65717;SDS011;52445;52.466;-1.016;2023-09-07T04:10:32;13.75;;;7.97;;
65717;SDS011;52445;52.466;-1.016;2023-09-07T04:12:59;13.88;;;9.52;;
65717;SDS011;52445;52.466;-1.016;2023-09-07T04:15:26;13.38;;;8.07;;
65717;SDS011;52445;52.466;-1.016;2023-09-07T04:17:53;14.27;;;9.57;;
65717;SDS011;52445;52.466;-1.016;2023-09-07T04:20:21;14.35;;;8.52;;
65717;SDS011;52445;52.466;-1.016;2023-09-07T04:22:48;14.07;;;8.10;;
65717;SDS011;52445;52.466;-1.016;2023-09-07T04:25:14;15.40;;;8.95;;
65717;SDS011;52445;52.466;-1.016;2023-09-07T04:27:41;16.45;;;9.18;;
65717;SDS011;52445;52.466;-1.016;2023-09-07T04:30:08;16.80;;;9.90;;
65717;SDS011;52445;52.466;-1.016;2023-09-07T04:32:35;15.13;;;9.10;;
65717;SDS011;52445;52.466;-1.016;2023-09-07T04:35:02;13.73;;;8.30;;
65717;SDS011;52445;52.466;-1.016;2023-09-07T04:37:29;16.38;;;9.85;;
65717;SDS011;52445;52.466;-1.016;2023-09-07T04:39:55;14.60;;;8.65;;
65717;SDS011;52445;52.466;-1.016;2023-09-07T04:42:22;19.02;;;9.70;;
65717;SDS011;52445;52.466;-1.016;2023-09-07T04:44:49;15.00;;;8.75;;
65717;SDS011;52445;52.466;-1.016;2023-09-07T04:47:15;16.23;;;9.70;;
65717;SDS011;52445;52.466;-1.016;2023-09-07T04:49:42;15.80;;;9.90;;
65717;SDS011;52445;52.466;-1.016;2023-09-07T04:52:09;15.55;;;9.63;;
65717;SDS011;52445;52.466;-1.016;2023-09-07T04:54:35;19.70;;;10.38;;
65717;SDS011;52445;52.466;-1.016;2023-09-07T04:57:02;16.00;;;10.02;;
65717;SDS011;52445;52.466;-1.016;2023-09-07T04:59:30;16.90;;;10.02;;
65717;SDS011;52445;52.466;-1.016;2023-09-07T05:01:59;15.88;;;10.00;;
65717;SDS011;52445;52.466;-1.016;2023-09-07T05:04:28;19.60;;;10.15;;
65717;SDS011;52445;52.466;-1.016;2023-09-07T05:06:56;16.27;;;10.00;;
65717;SDS011;52445;52.466;-1.016;2023-09-07T05:09:22;18.63;;;10.95;;
65717;SDS011;52445;52.466;-1.016;2023-09-07T05:11:51;18.98;;;10.98;;
65717;SDS011;52445;52.466;-1.016;2023-09-07T05:14:19;20.80;;;11.65;;
65717;SDS011;52445;52.466;-1.016;2023-09-07T05:16:45;18.30;;;10.88;;
65717;SDS011;52445;52.466;-1.016;2023-09-07T05:19:12;18.30;;;10.75;;
65717;SDS011;52445;52.466;-1.016;2023-09-07T05:21:39;22.67;;;13.32;;
65717;SDS011;52445;52.466;-1.016;2023-09-07T05:24:06;21.48;;;12.35;;
65717;SDS011;52445;52.466;-1.016;2023-09-07T05:26:33;23.50;;;12.50;;
65717;SDS011;52445;52.466;-1.016;2023-09-07T05:28:59;21.13;;;12.85;;
65717;SDS011;52445;52.466;-1.016;2023-09-07T05:31:26;22.10;;;12.63;;
65717;SDS011;52445;52.466;-1.016;2023-09-07T05:33:53;18.35;;;11.35;;
65717;SDS011;52445;52.466;-1.016;2023-09-07T05:36:20;21.92;;;13.93;;
65717;SDS011;52445;52.466;-1.016;2023-09-07T05:38:47;20.17;;;12.63;;
65717;SDS011;52445;52.466;-1.016;2023-09-07T05:41:13;22.60;;;12.10;;
65717;SDS011;52445;52.466;-1.016;2023-09-07T05:43:40;20.23;;;12.32;;
65717;SDS011;52445;52.466;-1.016;2023-09-07T05:46:06;20.73;;;12.02;;
65717;SDS011;52445;52.466;-1.016;2023-09-07T05:48:33;19.40;;;12.00;;
65717;SDS011;52445;52.466;-1.016;2023-09-07T05:51:00;19.85;;;11.50;;
65717;SDS011;52445;52.466;-1.016;2023-09-07T05:53:27;22.40;;;13.80;;
65717;SDS011;52445;52.466;-1.016;2023-09-07T05:55:53;20.75;;;13.73;;
65717;SDS011;52445;52.466;-1.016;2023-09-07T05:58:20;21.00;;;12.85;;
65717;SDS011;52445;52.466;-1.016;2023-09-07T06:00:47;17.60;;;10.98;;
65717;SDS011;52445;52.466;-1.016;2023-09-07T06:03:14;18.23;;;11.20;;
65717;SDS011;52445;52.466;-1.016;2023-09-07T06:05:41;18.60;;;11.15;;
65717;SDS011;52445;52.466;-1.016;2023-09-07T06:08:08;23.08;;;11.18;;
65717;SDS011;52445;52.466;-1.016;2023-09-07T06:10:34;18.85;;;11.27;;
65717;SDS011;52445;52.466;-1.016;2023-09-07T06:13:01;21.27;;;10.63;;
65717;SDS011;52445;52.466;-1.016;2023-09-07T06:15:29;18.23;;;10.30;;
65717;SDS011;52445;52.466;-1.016;2023-09-07T06:17:57;22.15;;;10.80;;
65717;SDS011;52445;52.466;-1.016;2023-09-07T06:20:24;21.38;;;11.98;;
65717;SDS011;52445;52.466;-1.016;2023-09-07T06:22:51;18.83;;;11.25;;
65717;SDS011;52445;52.466;-1.016;2023-09-07T06:25:18;20.77;;;11.35;;
65717;SDS011;52445;52.466;-1.016;2023-09-07T06:27:45;20.33;;;12.27;;
65717;SDS011;52445;52.466;-1.016;2023-09-07T06:30:11;20.88;;;11.48;;
65717;SDS011;52445;52.466;-1.016;2023-09-07T06:32:38;19.27;;;11.15;;
65717;SDS011;52445;52.466;-1.016;2023-09-07T06:35:06;19.92;;;11.27;;
65717;SDS011;52445;52.466;-1.016;2023-09-07T06:37:33;20.95;;;10.75;;
65717;SDS011;52445;52.466;-1.016;2023-09-07T06:40:00;18.08;;;10.38;;
65717;SDS011;52445;52.466;-1.016;2023-09-07T06:42:27;18.05;;;10.55;;
65717;SDS011;52445;52.466;-1.016;2023-09-07T06:44:54;17.85;;;10.00;;
65717;SDS011;52445;52.466;-1.016;2023-09-07T06:47:20;20.08;;;10.52;;
65717;SDS011;52445;52.466;-1.016;2023-09-07T06:49:47;19.52;;;11.10;;
65717;SDS011;52445;52.466;-1.016;2023-09-07T06:52:14;22.08;;;11.68;;
65717;SDS011;52445;52.466;-1.016;2023-09-07T06:54:42;19.42;;;11.13;;
65717;SDS011;52445;52.466;-1.016;2023-09-07T06:57:08;20.38;;;11.57;;
65717;SDS011;52445;52.466;-1.016;2023-09-07T06:59:35;19.63;;;12.45;;
65717;SDS011;52445;52.466;-1.016;2023-09-07T07:02:02;18.48;;;11.05;;
65717;SDS011;52445;52.466;-1.016;2023-09-07T07:04:31;19.35;;;11.57;;
65717;SDS011;52445;52.466;-1.016;2023-09-07T07:06:58;22.70;;;11.68;;
65717;SDS011;52445;52.466;-1.016;2023-09-07T07:09:27;17.50;;;12.90;;
65717;SDS011;52445;52.466;-1.016;2023-09-07T07:11:55;17.70;;;10.65;;
65717;SDS011;52445;52.466;-1.016;2023-09-07T07:14:22;17.25;;;11.13;;
65717;SDS011;52445;52.466;-1.016;2023-09-07T07:16:49;19.65;;;12.07;;
65717;SDS011;52445;52.466;-1.016;2023-09-07T07:19:16;22.58;;;11.05;;
65717;SDS011;52445;52.466;-1.016;2023-09-07T07:21:43;18.98;;;11.75;;
65717;SDS011;52445;52.466;-1.016;2023-09-07T07:24:09;19.20;;;11.32;;
65717;SDS011;52445;52.466;-1.016;2023-09-07T07:26:36;18.33;;;11.68;;
65717;SDS011;52445;52.466;-1.016;2023-09-07T07:29:03;18.23;;;12.02;;
65717;SDS011;52445;52.466;-1.016;2023-09-07T07:31:29;20.75;;;11.48;;
65717;SDS011;52445;52.466;-1.016;2023-09-07T07:33:56;19.73;;;12.00;;
65717;SDS011;52445;52.466;-1.016;2023-09-07T07:36:23;17.42;;;11.10;;
65717;SDS011;52445;52.466;-1.016;2023-09-07T07:38:50;24.77;;;12.80;;
65717;SDS011;52445;52.466;-1.016;2023-09-07T07:41:17;17.08;;;10.50;;
65717;SDS011;52445;52.466;-1.016;2023-09-07T07:43:43;21.10;;;11.35;;
65717;SDS011;52445;52.466;-1.016;2023-09-07T07:46:10;23.48;;;12.13;;
65717;SDS011;52445;52.466;-1.016;2023-09-07T07:48:37;17.42;;;11.45;;
65717;SDS011;52445;52.466;-1.016;2023-09-07T07:51:04;17.98;;;11.60;;
65717;SDS011;52445;52.466;-1.016;2023-09-07T07:53:35;19.17;;;12.20;;
65717;SDS011;52445;52.466;-1.016;2023-09-07T07:56:02;17.52;;;11.93;;
65717;SDS011;52445;52.466;-1.016;2023-09-07T07:58:29;18.35;;;11.27;;
65717;SDS011;52445;52.466;-1.016;2023-09-07T08:00:56;20.55;;;13.85;;
65717;SDS011;52445;52.466;-1.016;2023-09-07T08:03:25;19.35;;;11.35;;
65717;SDS011;52445;52.466;-1.016;2023-09-07T08:05:52;22.77;;;12.35;;
65717;SDS011;52445;52.466;-1.016;2023-09-07T08:08:18;21.45;;;13.75;;
65717;SDS011;52445;52.466;-1.016;2023-09-07T08:10:45;19.63;;;11.38;;
65717;SDS011;52445;52.466;-1.016;2023-09-07T08:13:12;19.30;;;12.18;;
65717;SDS011;52445;52.466;-1.016;2023-09-07T08:15:40;22.10;;;13.05;;
65717;SDS011;52445;52.466;-1.016;2023-09-07T08:18:07;21.48;;;12.45;;
65717;SDS011;52445;52.466;-1.016;2023-09-07T08:20:35;18.17;;;11.77;;
65717;SDS011;52445;52.466;-1.016;2023-09-07T08:23:02;19.70;;;12.73;;
65717;SDS011;52445;52.466;-1.016;2023-09-07T08:25:34;23.75;;;13.40;;
65717;SDS011;52445;52.466;-1.016;2023-09-07T08:28:01;21.20;;;15.05;;
65717;SDS011;52445;52.466;-1.016;2023-09-07T08:30:32;22.13;;;14.73;;
65717;SDS011;52445;52.466;-1.016;2023-09-07T08:35:29;22.92;;;13.00;;
65717;SDS011;52445;52.466;-1.016;2023-09-07T08:37:57;25.55;;;15.32;;
65717;SDS011;52445;52.466;-1.016;2023-09-07T08:40:26;21.98;;;14.35;;
65717;SDS011;52445;52.466;-1.016;2023-09-07T08:42:54;24.20;;;15.10;;
65717;SDS011;52445;52.466;-1.016;2023-09-07T08:45:21;21.35;;;14.70;;
65717;SDS011;52445;52.466;-1.016;2023-09-07T08:47:49;20.25;;;13.50;;
65717;SDS011;52445;52.466;-1.016;2023-09-07T08:50:16;22.95;;;12.93;;
65717;SDS011;52445;52.466;-1.016;2023-09-07T08:52:44;22.30;;;14.05;;
65717;SDS011;52445;52.466;-1.016;2023-09-07T08:55:13;20.98;;;13.60;;
65717;SDS011;52445;52.466;-1.016;2023-09-07T08:57:39;24.08;;;13.50;;
65717;SDS011;52445;52.466;-1.016;2023-09-07T09:00:06;21.75;;;14.23;;
65717;SDS011;52445;52.466;-1.016;2023-09-07T09:02:35;24.23;;;13.77;;
65717;SDS011;52445;52.466;-1.016;2023-09-07T09:05:03;20.25;;;13.95;;
65717;SDS011;52445;52.466;-1.016;2023-09-07T09:07:31;20.20;;;14.38;;
65717;SDS011;52445;52.466;-1.016;2023-09-07T09:10:06;18.42;;;12.63;;
65717;SDS011;52445;52.466;-1.016;2023-09-07T09:12:34;20.17;;;13.75;;
65717;SDS011;52445;52.466;-1.016;2023-09-07T09:15:01;19.98;;;13.45;;
65717;SDS011;52445;52.466;-1.016;2023-09-07T09:17:29;17.50;;;13.20;;
65717;SDS011;52445;52.466;-1.016;2023-09-07T09:19:56;19.10;;;13.35;;
65717;SDS011;52445;52.466;-1.016;2023-09-07T09:22:23;16.98;;;12.55;;
65717;SDS011;52445;52.466;-1.016;2023-09-07T09:24:50;18.10;;;13.70;;
65717;SDS011;52445;52.466;-1.016;2023-09-07T09:27:17;19.08;;;12.85;;
65717;SDS011;52445;52.466;-1.016;2023-09-07T09:29:44;14.77;;;11.75;;
65717;SDS011;52445;52.466;-1.016;2023-09-07T09:32:13;16.52;;;10.57;;
65717;SDS011;52445;52.466;-1.016;2023-09-07T09:34:43;16.38;;;12.57;;
65717;SDS011;52445;52.466;-1.016;2023-09-07T09:37:13;19.25;;;11.57;;
65717;SDS011;52445;52.466;-1.016;2023-09-07T09:39:43;16.80;;;12.43;;
65717;SDS011;52445;52.466;-1.016;2023-09-07T09:42:10;15.88;;;10.32;;
65717;SDS011;52445;52.466;-1.016;2023-09-07T09:44:38;13.82;;;9.82;;
65717;SDS011;52445;52.466;-1.016;2023-09-07T09:47:06;17.70;;;10.38;;
65717;SDS011;52445;52.466;-1.016;2023-09-07T09:49:34;15.23;;;11.00;;
65717;SDS011;52445;52.466;-1.016;2023-09-07T09:52:02;16.77;;;10.13;;
65717;SDS011;52445;52.466;-1.016;2023-09-07T09:54:30;14.38;;;9.52;;
65717;SDS011;52445;52.466;-1.016;2023-09-07T09:57:01;13.45;;;9.02;;
65717;SDS011;52445;52.466;-1.016;2023-09-07T09:59:28;14.65;;;9.38;;
65717;SDS011;52445;52.466;-1.016;2023-09-07T10:01:55;15.93;;;10.82;;
65717;SDS011;52445;52.466;-1.016;2023-09-07T10:04:23;13.20;;;11.02;;
65717;SDS011;52445;52.466;-1.016;2023-09-07T10:06:54;17.80;;;9.50;;
65717;SDS011;52445;52.466;-1.016;2023-09-07T10:09:22;13.00;;;9.15;;
65717;SDS011;52445;52.466;-1.016;2023-09-07T10:11:51;15.00;;;9.52;;
65717;SDS011;52445;52.466;-1.016;2023-09-07T10:14:19;14.23;;;9.10;;
65717;SDS011;52445;52.466;-1.016;2023-09-07T10:16:47;17.83;;;8.32;;
65717;SDS011;52445;52.466;-1.016;2023-09-07T10:19:17;12.88;;;8.45;;
65717;SDS011;52445;52.466;-1.016;2023-09-07T10:21:46;12.20;;;8.07;;
65717;SDS011;52445;52.466;-1.016;2023-09-07T10:24:30;13.63;;;8.35;;
65717;SDS011;52445;52.466;-1.016;2023-09-07T10:27:02;10.45;;;8.40;;
65717;SDS011;52445;52.466;-1.016;2023-09-07T10:29:50;13.75;;;8.20;;
65717;SDS011;52445;52.466;-1.016;2023-09-07T10:32:22;10.50;;;7.43;;
65717;SDS011;52445;52.466;-1.016;2023-09-07T10:34:49;12.77;;;8.73;;
65717;SDS011;52445;52.466;-1.016;2023-09-07T10:37:16;9.65;;;7.28;;
65717;SDS011;52445;52.466;-1.016;2023-09-07T10:39:44;9.45;;;6.93;;
65717;SDS011;52445;52.466;-1.016;2023-09-07T10:42:20;11.20;;;7.38;;
65717;SDS011;52445;52.466;-1.016;2023-09-07T10:44:48;11.52;;;6.65;;
65717;SDS011;52445;52.466;-1.016;2023-09-07T10:47:15;10.98;;;7.63;;
65717;SDS011;52445;52.466;-1.016;2023-09-07T10:49:43;10.90;;;7.32;;
65717;SDS011;52445;52.466;-1.016;2023-09-07T10:52:10;11.77;;;7.32;;
65717;SDS011;52445;52.466;-1.016;2023-09-07T10:54:36;10.63;;;7.07;;
65717;SDS011;52445;52.466;-1.016;2023-09-07T10:57:11;12.40;;;7.38;;
65717;SDS011;52445;52.466;-1.016;2023-09-07T10:59:47;11.13;;;6.45;;
65717;SDS011;52445;52.466;-1.016;2023-09-07T11:02:15;14.35;;;8.05;;
65717;SDS011;52445;52.466;-1.016;2023-09-07T11:04:42;11.63;;;9.13;;
65717;SDS011;52445;52.466;-1.016;2023-09-07T11:07:09;11.20;;;7.47;;
65717;SDS011;52445;52.466;-1.016;2023-09-07T11:09:41;13.18;;;7.13;;
65717;SDS011;52445;52.466;-1.016;2023-09-07T11:12:12;11.15;;;7.95;;
65717;SDS011;52445;52.466;-1.016;2023-09-07T11:14:40;11.43;;;7.78;;
65717;SDS011;52445;52.466;-1.016;2023-09-07T11:17:07;9.15;;;6.20;;
65717;SDS011;52445;52.466;-1.016;2023-09-07T11:19:35;16.17;;;6.45;;
65717;SDS011;52445;52.466;-1.016;2023-09-07T11:22:02;7.82;;;6.63;;
65717;SDS011;52445;52.466;-1.016;2023-09-07T11:24:32;8.68;;;7.18;;
65717;SDS011;52445;52.466;-1.016;2023-09-07T11:27:00;10.73;;;7.00;;
65717;SDS011;52445;52.466;-1.016;2023-09-07T11:29:30;12.13;;;6.80;;
65717;SDS011;52445;52.466;-1.016;2023-09-07T11:32:06;10.52;;;5.75;;
65717;SDS011;52445;52.466;-1.016;2023-09-07T11:34:33;9.98;;;7.43;;
65717;SDS011;52445;52.466;-1.016;2023-09-07T11:37:01;10.68;;;7.05;;
65717;SDS011;52445;52.466;-1.016;2023-09-07T11:39:29;10.63;;;6.38;;
65717;SDS011;52445;52.466;-1.016;2023-09-07T11:41:56;11.90;;;7.57;;
65717;SDS011;52445;52.466;-1.016;2023-09-07T11:44:23;10.25;;;7.40;;
65717;SDS011;52445;52.466;-1.016;2023-09-07T11:46:50;10.20;;;7.15;;
65717;SDS011;52445;52.466;-1.016;2023-09-07T11:49:17;9.82;;;7.55;;
65717;SDS011;52445;52.466;-1.016;2023-09-07T11:51:46;13.40;;;7.10;;
65717;SDS011;52445;52.466;-1.016;2023-09-07T11:54:14;14.25;;;7.90;;
65717;SDS011;52445;52.466;-1.016;2023-09-07T11:56:40;8.75;;;6.30;;
65717;SDS011;52445;52.466;-1.016;2023-09-07T11:59:09;11.10;;;7.50;;
65717;SDS011;52445;52.466;-1.016;2023-09-07T12:01:36;10.57;;;6.95;;
65717;SDS011;52445;52.466;-1.016;2023-09-07T12:04:03;10.85;;;6.78;;
65717;SDS011;52445;52.466;-1.016;2023-09-07T12:06:31;9.18;;;6.80;;
65717;SDS011;52445;52.466;-1.016;2023-09-07T12:11:35;9.43;;;8.52;;
65717;SDS011;52445;52.466;-1.016;2023-09-07T12:14:02;9.40;;;6.53;;
65717;SDS011;52445;52.466;-1.016;2023-09-07T12:16:30;11.52;;;8.40;;
65717;SDS011;52445;52.466;-1.016;2023-09-07T12:18:57;8.82;;;7.53;;
65717;SDS011;52445;52.466;-1.016;2023-09-07T12:21:24;12.23;;;8.23;;
65717;SDS011;52445;52.466;-1.016;2023-09-07T12:23:51;9.40;;;7.22;;
65717;SDS011;52445;52.466;-1.016;2023-09-07T12:26:18;12.10;;;7.57;;
65717;SDS011;52445;52.466;-1.016;2023-09-07T12:28:47;10.05;;;8.07;;
65717;SDS011;52445;52.466;-1.016;2023-09-07T12:31:14;11.50;;;7.07;;
65717;SDS011;52445;52.466;-1.016;2023-09-07T12:33:41;7.50;;;5.93;;
65717;SDS011;52445;52.466;-1.016;2023-09-07T12:36:08;7.40;;;6.18;;
65717;SDS011;52445;52.466;-1.016;2023-09-07T12:38:36;7.50;;;5.78;;
65717;SDS011;52445;52.466;-1.016;2023-09-07T12:41:03;8.48;;;6.32;;
65717;SDS011;52445;52.466;-1.016;2023-09-07T12:43:30;8.52;;;5.53;;
65717;SDS011;52445;52.466;-1.016;2023-09-07T12:45:57;8.93;;;6.03;;
65717;SDS011;52445;52.466;-1.016;2023-09-07T12:48:25;7.18;;;5.45;;
65717;SDS011;52445;52.466;-1.016;2023-09-07T12:50:53;6.80;;;5.85;;
65717;SDS011;52445;52.466;-1.016;2023-09-07T12:53:20;6.47;;;5.88;;
65717;SDS011;52445;52.466;-1.016;2023-09-07T12:55:51;7.22;;;5.43;;
65717;SDS011;52445;52.466;-1.016;2023-09-07T12:58:19;7.88;;;5.65;;
65717;SDS011;52445;52.466;-1.016;2023-09-07T13:00:46;6.85;;;6.25;;
65717;SDS011;52445;52.466;-1.016;2023-09-07T13:03:14;6.28;;;5.68;;
65717;SDS011;52445;52.466;-1.016;2023-09-07T13:05:41;5.63;;;5.10;;
65717;SDS011;52445;52.466;-1.016;2023-09-07T13:08:08;5.43;;;3.92;;
65717;SDS011;52445;52.466;-1.016;2023-09-07T13:10:35;5.85;;;5.10;;
65717;SDS011;52445;52.466;-1.016;2023-09-07T13:13:02;6.07;;;5.35;;
65717;SDS011;52445;52.466;-1.016;2023-09-07T13:15:28;6.03;;;5.13;;
65717;SDS011;52445;52.466;-1.016;2023-09-07T13:17:55;4.82;;;4.15;;
65717;SDS011;52445;52.466;-1.016;2023-09-07T13:20:22;9.32;;;5.22;;
65717;SDS011;52445;52.466;-1.016;2023-09-07T13:22:49;7.05;;;5.75;;
65717;SDS011;52445;52.466;-1.016;2023-09-07T13:25:15;7.53;;;5.97;;
65717;SDS011;52445;52.466;-1.016;2023-09-07T13:27:42;6.45;;;5.10;;
65717;SDS011;52445;52.466;-1.016;2023-09-07T13:30:09;6.63;;;4.55;;
65717;SDS011;52445;52.466;-1.016;2023-09-07T13:32:38;7.05;;;5.03;;
65717;SDS011;52445;52.466;-1.016;2023-09-07T13:35:05;6.93;;;4.68;;
65717;SDS011;52445;52.466;-1.016;2023-09-07T13:37:32;7.53;;;4.93;;
65717;SDS011;52445;52.466;-1.016;2023-09-07T13:39:59;7.30;;;4.93;;
65717;SDS011;52445;52.466;-1.016;2023-09-07T13:42:25;7.63;;;4.68;;
65717;SDS011;52445;52.466;-1.016;2023-09-07T13:44:53;5.68;;;5.18;;
65717;SDS011;52445;52.466;-1.016;2023-09-07T13:47:20;5.18;;;4.63;;
65717;SDS011;52445;52.466;-1.016;2023-09-07T13:49:46;5.25;;;4.75;;
65717;SDS011;52445;52.466;-1.016;2023-09-07T13:52:13;9.00;;;4.97;;
65717;SDS011;52445;52.466;-1.016;2023-09-07T13:54:40;6.13;;;4.82;;
65717;SDS011;52445;52.466;-1.016;2023-09-07T13:57:07;9.27;;;6.10;;
65717;SDS011;52445;52.466;-1.016;2023-09-07T13:59:34;4.97;;;4.53;;
65717;SDS011;52445;52.466;-1.016;2023-09-07T14:02:02;8.30;;;4.63;;
65717;SDS011;52445;52.466;-1.016;2023-09-07T14:04:29;6.18;;;5.10;;
65717;SDS011;52445;52.466;-1.016;2023-09-07T14:06:57;6.75;;;4.97;;
65717;SDS011;52445;52.466;-1.016;2023-09-07T14:09:24;9.02;;;4.53;;
65717;SDS011;52445;52.466;-1.016;2023-09-07T14:11:51;5.45;;;4.38;;
65717;SDS011;52445;52.466;-1.016;2023-09-07T14:14:17;5.05;;;4.00;;
65717;SDS011;52445;52.466;-1.016;2023-09-07T14:16:44;4.32;;;3.92;;
65717;SDS011;52445;52.466;-1.016;2023-09-07T14:19:11;4.88;;;3.95;;
65717;SDS011;52445;52.466;-1.016;2023-09-07T14:21:38;7.22;;;4.80;;
65717;SDS011;52445;52.466;-1.016;2023-09-07T14:24:04;5.38;;;4.50;;
65717;SDS011;52445;52.466;-1.016;2023-09-07T14:26:31;4.55;;;3.08;;
65717;SDS011;52445;52.466;-1.016;2023-09-07T14:29:04;6.43;;;4.30;;